PWSweather.com
Personal Weather Stations
Station Observations
CW4114
Near Downtown, Rogers City, MI 49779

Near DowntownRogers City, MI 49779

Lat: 45.417443, Lon: -83.810642

Elevation: 605

Station Type: Davis Vantage Pro2 w/Solar

Latest ConditionsUpdated 2:58:32 AM EDT Wednesday, Jul 30, 2014
Currently Today's Max Today's Min Today's Average
Temperature 53.1°F11.7°C 57.9°F14.4°C 53.1°F11.7°C 55.7°F13.2°C
Dew Point 51.4°F10.8°C 53.8°F12.1°C 51.3°F10.7°C 52.7°F11.5°C
Winds 2.0 mph W3.2 kmh W 2.9 mph WSW4.7 kmh WSW - 1.7 mph 2.7 kmh
Wind Gusts 4.0 mph6.4 kmh 11.0 mph17.7 kmh - -
Humidity 94% 94% 86% 90%
Pressure 29.91 in1012.9 mb 29.92 in1013.2 mb 29.91 in1012.9 mb -
Hour Temp Dew Point Humidity Winds Wind Gusts Pressure Precip Precip Rate Daily Precip Total
02:58 AM 53.1°F11.7°C 51.4°F10.8°C 94% 2.0 mph W3.2 kmh W 4.0 mph6.4 kmh 29.91 in1012.9 mb 0.00 in0.0 mm 0.00 in/hr0.0 mm/hr 0.00 in0.0 mm
02:53 AM 53.2°F11.8°C 51.6°F10.9°C 94% 0.9 mph WSW1.4 kmh WSW 2.9 mph4.7 kmh 29.91 in1012.9 mb 0.00 in0.0 mm 0.00 in/hr0.0 mm/hr 0.00 in0.0 mm
02:48 AM 53.2°F11.8°C 51.3°F10.7°C 93% 2.0 mph WNW3.2 kmh WNW 2.9 mph4.7 kmh 29.91 in1012.9 mb 0.00 in0.0 mm 0.00 in/hr0.0 mm/hr 0.00 in0.0 mm
02:43 AM 53.4°F11.9°C 51.4°F10.8°C 93% 0.9 mph W1.4 kmh W 2.9 mph4.7 kmh 29.91 in1012.9 mb 0.00 in0.0 mm 0.00 in/hr0.0 mm/hr 0.00 in0.0 mm
02:38 AM 53.4°F11.9°C 51.4°F10.8°C 93% Calm Calm 4.0 mph6.4 kmh 29.91 in1012.9 mb 0.00 in0.0 mm 0.00 in/hr0.0 mm/hr 0.00 in0.0 mm
02:33 AM 53.6°F12.0°C 51.6°F10.9°C 93% 0.9 mph NW1.4 kmh NW 2.0 mph3.2 kmh 29.91 in1012.9 mb 0.00 in0.0 mm 0.00 in/hr0.0 mm/hr 0.00 in0.0 mm
02:28 AM 53.8°F12.1°C 51.8°F11.0°C 93% 2.0 mph NW3.2 kmh NW 4.0 mph6.4 kmh 29.91 in1012.9 mb 0.00 in0.0 mm 0.00 in/hr0.0 mm/hr 0.00 in0.0 mm
02:23 AM 53.8°F12.1°C 51.8°F11.0°C 93% 2.9 mph W4.7 kmh W 4.0 mph6.4 kmh 29.92 in1013.2 mb 0.00 in0.0 mm 0.00 in/hr0.0 mm/hr 0.00 in0.0 mm
02:18 AM 54.0°F12.2°C 51.6°F10.9°C 92% 2.9 mph WNW4.7 kmh WNW 6.0 mph9.7 kmh 29.92 in1013.2 mb 0.00 in0.0 mm 0.00 in/hr0.0 mm/hr 0.00 in0.0 mm
02:13 AM 54.0°F12.2°C 51.6°F10.9°C 92% 2.9 mph WSW4.7 kmh WSW 4.9 mph7.9 kmh 29.91 in1012.9 mb 0.00 in0.0 mm 0.00 in/hr0.0 mm/hr 0.00 in0.0 mm
02:08 AM 54.3°F12.4°C 52.0°F11.1°C 92% 2.9 mph W4.7 kmh W 6.0 mph9.7 kmh 29.92 in1013.2 mb 0.00 in0.0 mm 0.00 in/hr0.0 mm/hr 0.00 in0.0 mm
02:03 AM 54.5°F12.5°C 52.0°F11.1°C 91% 2.9 mph WSW4.7 kmh WSW 4.9 mph7.9 kmh 29.92 in1013.2 mb 0.00 in0.0 mm 0.00 in/hr0.0 mm/hr 0.00 in0.0 mm
01:58 AM 54.9°F12.7°C 52.3°F11.3°C 91% 2.9 mph W4.7 kmh W 4.9 mph7.9 kmh 29.92 in1013.2 mb 0.00 in0.0 mm 0.00 in/hr0.0 mm/hr 0.00 in0.0 mm
01:53 AM 55.2°F12.9°C 52.3°F11.3°C 90% 2.9 mph W4.7 kmh W 4.9 mph7.9 kmh 29.92 in1013.2 mb 0.00 in0.0 mm 0.00 in/hr0.0 mm/hr 0.00 in0.0 mm
01:48 AM 55.8°F13.2°C 52.5°F11.4°C 89% 2.9 mph W4.7 kmh W 4.9 mph7.9 kmh 29.92 in1013.2 mb 0.00 in0.0 mm 0.00 in/hr0.0 mm/hr 0.00 in0.0 mm
01:43 AM 56.5°F13.6°C 52.9°F11.6°C 88% 2.9 mph W4.7 kmh W 4.9 mph7.9 kmh 29.92 in1013.2 mb 0.00 in0.0 mm 0.00 in/hr0.0 mm/hr 0.00 in0.0 mm
01:38 AM 57.0°F13.9°C 53.2°F11.8°C 87% 2.0 mph WSW3.2 kmh WSW 4.9 mph7.9 kmh 29.92 in1013.2 mb 0.00 in0.0 mm 0.00 in/hr0.0 mm/hr 0.00 in0.0 mm
01:33 AM 57.2°F14.0°C 53.4°F11.9°C 87% 2.0 mph WNW3.2 kmh WNW 4.9 mph7.9 kmh 29.92 in1013.2 mb 0.00 in0.0 mm 0.00 in/hr0.0 mm/hr 0.00 in0.0 mm
01:28 AM 57.0°F13.9°C 53.4°F11.9°C 88% 2.0 mph NW3.2 kmh NW 11.0 mph17.7 kmh 29.92 in1013.2 mb 0.00 in0.0 mm 0.00 in/hr0.0 mm/hr 0.00 in0.0 mm
01:23 AM 56.5°F13.6°C 53.6°F12.0°C 90% 0.9 mph ENE1.4 kmh ENE 8.1 mph13.0 kmh 29.92 in1013.2 mb 0.00 in0.0 mm 0.00 in/hr0.0 mm/hr 0.00 in0.0 mm
01:18 AM 56.1°F13.4°C 53.2°F11.8°C 90% 0.9 mph NNE1.4 kmh NNE 5.0 mph8.0 kmh 29.92 in1013.2 mb 0.00 in0.0 mm 0.00 in/hr0.0 mm/hr 0.00 in0.0 mm
01:13 AM 55.9°F13.3°C 53.1°F11.7°C 90% 0.9 mph NW1.4 kmh NW 4.0 mph6.4 kmh 29.92 in1013.2 mb 0.00 in0.0 mm 0.00 in/hr0.0 mm/hr 0.00 in0.0 mm
01:08 AM 56.1°F13.4°C 53.2°F11.8°C 90% 0.9 mph NW1.4 kmh NW 4.0 mph6.4 kmh 29.92 in1013.2 mb 0.00 in0.0 mm 0.00 in/hr0.0 mm/hr 0.00 in0.0 mm
01:03 AM 56.3°F13.5°C 53.1°F11.7°C 89% 0.9 mph NW1.4 kmh NW 2.9 mph4.7 kmh 29.92 in1013.2 mb 0.00 in0.0 mm 0.00 in/hr0.0 mm/hr 0.00 in0.0 mm
12:58 AM 56.7°F13.7°C 53.4°F11.9°C 89% 0.9 mph WNW1.4 kmh WNW 2.9 mph4.7 kmh 29.92 in1013.2 mb 0.00 in0.0 mm 0.00 in/hr0.0 mm/hr 0.00 in0.0 mm
12:53 AM 56.7°F13.7°C 53.4°F11.9°C 89% 0.9 mph W1.4 kmh W 2.9 mph4.7 kmh 29.92 in1013.2 mb 0.00 in0.0 mm 0.00 in/hr0.0 mm/hr 0.00 in0.0 mm
12:48 AM 56.7°F13.7°C 53.4°F11.9°C 89% 2.0 mph WNW3.2 kmh WNW 6.0 mph9.7 kmh 29.91 in1012.9 mb 0.00 in0.0 mm 0.00 in/hr0.0 mm/hr 0.00 in0.0 mm
12:43 AM 56.8°F13.8°C 53.6°F12.0°C 89% 2.0 mph WNW3.2 kmh WNW 4.0 mph6.4 kmh 29.91 in1012.9 mb 0.00 in0.0 mm 0.00 in/hr0.0 mm/hr 0.00 in0.0 mm
12:38 AM 56.8°F13.8°C 53.2°F11.8°C 88% 2.0 mph W3.2 kmh W 4.9 mph7.9 kmh 29.92 in1013.2 mb 0.00 in0.0 mm 0.00 in/hr0.0 mm/hr 0.00 in0.0 mm
12:33 AM 57.0°F13.9°C 53.4°F11.9°C 88% 0.9 mph W1.4 kmh W 4.0 mph6.4 kmh 29.91 in1012.9 mb 0.00 in0.0 mm 0.00 in/hr0.0 mm/hr 0.00 in0.0 mm
12:28 AM 57.2°F14.0°C 53.6°F12.0°C 88% 0.9 mph W1.4 kmh W 4.0 mph6.4 kmh 29.91 in1012.9 mb 0.00 in0.0 mm 0.00 in/hr0.0 mm/hr 0.00 in0.0 mm
12:23 AM 57.4°F14.1°C 53.6°F12.0°C 87% 0.9 mph WNW1.4 kmh WNW 4.0 mph6.4 kmh 29.91 in1012.9 mb 0.00 in0.0 mm 0.00 in/hr0.0 mm/hr 0.00 in0.0 mm
12:18 AM 57.6°F14.2°C 53.8°F12.1°C 87% 0.9 mph WNW1.4 kmh WNW 4.0 mph6.4 kmh 29.91 in1012.9 mb 0.00 in0.0 mm 0.00 in/hr0.0 mm/hr 0.00 in0.0 mm
12:13 AM 57.6°F14.2°C 53.8°F12.1°C 87% 2.0 mph NW3.2 kmh NW 4.0 mph6.4 kmh 29.91 in1012.9 mb 0.00 in0.0 mm 0.00 in/hr0.0 mm/hr 0.00 in0.0 mm
12:08 AM 57.7°F14.3°C 53.6°F12.0°C 86% 0.9 mph WNW1.4 kmh WNW 4.9 mph7.9 kmh 29.91 in1012.9 mb 0.00 in0.0 mm 0.00 in/hr0.0 mm/hr 0.00 in0.0 mm
12:03 AM 57.9°F14.4°C 53.8°F12.1°C 86% 0.9 mph WNW1.4 kmh WNW 4.9 mph7.9 kmh 29.91 in1012.9 mb 0.00 in0.0 mm 0.00 in/hr0.0 mm/hr 0.00 in0.0 mm